sensor_id;sensor_type;location;lat;lon;timestamp;temperature;humidity
13472;DHT22;6808;49.444;11.034;2023-02-22T00:00:38;6.00;99.90
13472;DHT22;6808;49.444;11.034;2023-02-22T00:03:12;5.90;99.90
13472;DHT22;6808;49.444;11.034;2023-02-22T00:05:41;5.90;99.90
13472;DHT22;6808;49.444;11.034;2023-02-22T00:08:12;5.90;99.90
13472;DHT22;6808;49.444;11.034;2023-02-22T00:10:38;5.90;99.90
13472;DHT22;6808;49.444;11.034;2023-02-22T00:13:08;5.90;99.90
13472;DHT22;6808;49.444;11.034;2023-02-22T00:15:34;5.80;99.90
13472;DHT22;6808;49.444;11.034;2023-02-22T00:18:02;5.80;99.90
13472;DHT22;6808;49.444;11.034;2023-02-22T00:20:28;5.80;99.90
13472;DHT22;6808;49.444;11.034;2023-02-22T00:22:54;5.80;99.90
13472;DHT22;6808;49.444;11.034;2023-02-22T00:25:23;5.80;99.90
13472;DHT22;6808;49.444;11.034;2023-02-22T00:27:50;5.80;99.90
13472;DHT22;6808;49.444;11.034;2023-02-22T00:30:22;5.80;99.90
13472;DHT22;6808;49.444;11.034;2023-02-22T00:32:49;5.80;99.90
13472;DHT22;6808;49.444;11.034;2023-02-22T00:35:17;5.80;99.90
13472;DHT22;6808;49.444;11.034;2023-02-22T00:37:47;5.80;99.90
13472;DHT22;6808;49.444;11.034;2023-02-22T00:40:15;5.70;99.90
13472;DHT22;6808;49.444;11.034;2023-02-22T00:42:41;5.70;99.90
13472;DHT22;6808;49.444;11.034;2023-02-22T00:45:07;5.70;99.90
13472;DHT22;6808;49.444;11.034;2023-02-22T00:47:33;5.70;99.90
13472;DHT22;6808;49.444;11.034;2023-02-22T00:49:59;5.70;99.90
13472;DHT22;6808;49.444;11.034;2023-02-22T00:52:25;5.60;99.90
13472;DHT22;6808;49.444;11.034;2023-02-22T00:54:53;5.60;99.90
13472;DHT22;6808;49.444;11.034;2023-02-22T00:57:19;5.50;99.90
13472;DHT22;6808;49.444;11.034;2023-02-22T00:59:45;5.50;99.90
13472;DHT22;6808;49.444;11.034;2023-02-22T01:02:11;5.50;99.90
13472;DHT22;6808;49.444;11.034;2023-02-22T01:04:37;5.50;99.90
13472;DHT22;6808;49.444;11.034;2023-02-22T01:07:03;5.40;99.90
13472;DHT22;6808;49.444;11.034;2023-02-22T01:09:32;5.40;99.90
13472;DHT22;6808;49.444;11.034;2023-02-22T01:11:59;5.40;99.90
13472;DHT22;6808;49.444;11.034;2023-02-22T01:14:25;5.40;99.90
13472;DHT22;6808;49.444;11.034;2023-02-22T01:16:52;5.40;99.90
13472;DHT22;6808;49.444;11.034;2023-02-22T01:19:19;5.30;99.90
13472;DHT22;6808;49.444;11.034;2023-02-22T01:21:45;5.30;99.90
13472;DHT22;6808;49.444;11.034;2023-02-22T01:24:11;5.30;99.90
13472;DHT22;6808;49.444;11.034;2023-02-22T01:26:48;5.30;99.90
13472;DHT22;6808;49.444;11.034;2023-02-22T01:29:21;5.30;99.90
13472;DHT22;6808;49.444;11.034;2023-02-22T01:31:53;5.30;99.90
13472;DHT22;6808;49.444;11.034;2023-02-22T01:34:20;5.30;99.90
13472;DHT22;6808;49.444;11.034;2023-02-22T01:36:45;5.30;99.90
13472;DHT22;6808;49.444;11.034;2023-02-22T01:39:11;5.30;99.90
13472;DHT22;6808;49.444;11.034;2023-02-22T01:41:37;5.20;99.90
13472;DHT22;6808;49.444;11.034;2023-02-22T01:44:25;5.20;99.90
13472;DHT22;6808;49.444;11.034;2023-02-22T01:46:52;5.20;99.90
13472;DHT22;6808;49.444;11.034;2023-02-22T01:49:18;5.10;99.90
13472;DHT22;6808;49.444;11.034;2023-02-22T01:51:47;5.10;99.90
13472;DHT22;6808;49.444;11.034;2023-02-22T01:54:37;5.10;99.90
13472;DHT22;6808;49.444;11.034;2023-02-22T01:57:07;5.10;99.90
13472;DHT22;6808;49.444;11.034;2023-02-22T01:59:39;5.10;99.90
13472;DHT22;6808;49.444;11.034;2023-02-22T02:02:06;5.10;99.90
13472;DHT22;6808;49.444;11.034;2023-02-22T02:04:35;5.10;99.90
13472;DHT22;6808;49.444;11.034;2023-02-22T02:07:04;5.00;99.90
13472;DHT22;6808;49.444;11.034;2023-02-22T02:09:58;5.00;99.90
13472;DHT22;6808;49.444;11.034;2023-02-22T02:12:26;5.00;99.90
13472;DHT22;6808;49.444;11.034;2023-02-22T02:14:52;5.00;99.90
13472;DHT22;6808;49.444;11.034;2023-02-22T02:17:21;4.90;99.90
13472;DHT22;6808;49.444;11.034;2023-02-22T02:20:13;4.90;99.90
13472;DHT22;6808;49.444;11.034;2023-02-22T02:25:56;4.90;99.90
13472;DHT22;6808;49.444;11.034;2023-02-22T02:34:27;4.80;99.90
13472;DHT22;6808;49.444;11.034;2023-02-22T02:40:28;4.70;99.90
13472;DHT22;6808;49.444;11.034;2023-02-22T02:45:44;4.70;99.90
13472;DHT22;6808;49.444;11.034;2023-02-22T02:48:14;4.70;99.90
13472;DHT22;6808;49.444;11.034;2023-02-22T02:50:54;4.70;99.90
13472;DHT22;6808;49.444;11.034;2023-02-22T02:53:25;4.70;99.90
13472;DHT22;6808;49.444;11.034;2023-02-22T02:55:52;4.70;99.90
13472;DHT22;6808;49.444;11.034;2023-02-22T02:58:21;5.20;99.90
13472;DHT22;6808;49.444;11.034;2023-02-22T03:00:49;4.60;99.90
13472;DHT22;6808;49.444;11.034;2023-02-22T03:06:27;4.50;99.90
13472;DHT22;6808;49.444;11.034;2023-02-22T03:09:19;4.50;99.90
13472;DHT22;6808;49.444;11.034;2023-02-22T03:12:18;4.40;99.90
13472;DHT22;6808;49.444;11.034;2023-02-22T03:17:27;4.40;99.90
13472;DHT22;6808;49.444;11.034;2023-02-22T03:20:26;4.30;99.90
13472;DHT22;6808;49.444;11.034;2023-02-22T03:23:42;4.30;99.90
13472;DHT22;6808;49.444;11.034;2023-02-22T03:26:13;4.20;99.90
13472;DHT22;6808;49.444;11.034;2023-02-22T03:28:45;4.20;99.90
13472;DHT22;6808;49.444;11.034;2023-02-22T03:31:16;5.30;99.90
13472;DHT22;6808;49.444;11.034;2023-02-22T03:33:47;4.20;99.90
13472;DHT22;6808;49.444;11.034;2023-02-22T03:36:23;4.10;99.90
13472;DHT22;6808;49.444;11.034;2023-02-22T03:38:52;4.10;99.90
13472;DHT22;6808;49.444;11.034;2023-02-22T03:41:22;4.10;99.90
13472;DHT22;6808;49.444;11.034;2023-02-22T03:44:02;4.10;99.90
13472;DHT22;6808;49.444;11.034;2023-02-22T03:46:29;4.20;99.90
13472;DHT22;6808;49.444;11.034;2023-02-22T03:49:09;4.20;99.90
13472;DHT22;6808;49.444;11.034;2023-02-22T03:51:36;4.20;99.90
13472;DHT22;6808;49.444;11.034;2023-02-22T03:54:02;4.20;99.90
13472;DHT22;6808;49.444;11.034;2023-02-22T03:56:36;4.10;99.90
13472;DHT22;6808;49.444;11.034;2023-02-22T03:59:05;4.20;99.90
13472;DHT22;6808;49.444;11.034;2023-02-22T04:01:31;4.10;99.90
13472;DHT22;6808;49.444;11.034;2023-02-22T04:03:57;4.10;99.90
13472;DHT22;6808;49.444;11.034;2023-02-22T04:06:22;4.00;99.90
13472;DHT22;6808;49.444;11.034;2023-02-22T04:08:59;4.00;99.90
13472;DHT22;6808;49.444;11.034;2023-02-22T04:11:25;3.20;99.90
13472;DHT22;6808;49.444;11.034;2023-02-22T04:13:50;4.00;99.90
13472;DHT22;6808;49.444;11.034;2023-02-22T04:16:19;4.00;99.90
13472;DHT22;6808;49.444;11.034;2023-02-22T04:18:44;4.00;99.90
13472;DHT22;6808;49.444;11.034;2023-02-22T04:21:10;3.90;99.90
13472;DHT22;6808;49.444;11.034;2023-02-22T04:23:35;3.90;99.90
13472;DHT22;6808;49.444;11.034;2023-02-22T04:26:01;3.80;99.90
13472;DHT22;6808;49.444;11.034;2023-02-22T04:28:27;3.80;99.90
13472;DHT22;6808;49.444;11.034;2023-02-22T04:30:53;3.80;99.90
13472;DHT22;6808;49.444;11.034;2023-02-22T04:33:18;3.80;99.90
13472;DHT22;6808;49.444;11.034;2023-02-22T04:35:44;3.80;99.90
13472;DHT22;6808;49.444;11.034;2023-02-22T04:38:10;3.80;99.90
13472;DHT22;6808;49.444;11.034;2023-02-22T04:40:35;3.80;99.90
13472;DHT22;6808;49.444;11.034;2023-02-22T04:43:01;3.70;99.90
13472;DHT22;6808;49.444;11.034;2023-02-22T04:45:26;3.70;99.90
13472;DHT22;6808;49.444;11.034;2023-02-22T04:47:52;3.70;99.90
13472;DHT22;6808;49.444;11.034;2023-02-22T04:50:18;3.70;99.90
13472;DHT22;6808;49.444;11.034;2023-02-22T04:52:43;3.60;99.90
13472;DHT22;6808;49.444;11.034;2023-02-22T04:55:10;3.60;99.90
13472;DHT22;6808;49.444;11.034;2023-02-22T04:57:36;3.60;99.90
13472;DHT22;6808;49.444;11.034;2023-02-22T05:00:03;3.60;99.90
13472;DHT22;6808;49.444;11.034;2023-02-22T05:02:29;2.70;99.90
13472;DHT22;6808;49.444;11.034;2023-02-22T05:04:54;3.50;99.90
13472;DHT22;6808;49.444;11.034;2023-02-22T05:07:20;3.40;99.90
13472;DHT22;6808;49.444;11.034;2023-02-22T05:09:45;3.40;99.90
13472;DHT22;6808;49.444;11.034;2023-02-22T05:12:11;3.40;99.90
13472;DHT22;6808;49.444;11.034;2023-02-22T05:14:36;3.40;99.90
13472;DHT22;6808;49.444;11.034;2023-02-22T05:17:02;3.50;99.90
13472;DHT22;6808;49.444;11.034;2023-02-22T05:19:28;3.50;99.90
13472;DHT22;6808;49.444;11.034;2023-02-22T05:21:54;3.50;99.90
13472;DHT22;6808;49.444;11.034;2023-02-22T05:24:21;3.40;99.90
13472;DHT22;6808;49.444;11.034;2023-02-22T05:26:52;3.40;99.90
13472;DHT22;6808;49.444;11.034;2023-02-22T05:29:18;3.30;99.90
13472;DHT22;6808;49.444;11.034;2023-02-22T05:31:44;3.30;99.90
13472;DHT22;6808;49.444;11.034;2023-02-22T05:34:10;3.30;99.90
13472;DHT22;6808;49.444;11.034;2023-02-22T05:36:35;3.20;99.90
13472;DHT22;6808;49.444;11.034;2023-02-22T05:39:01;3.20;99.90
13472;DHT22;6808;49.444;11.034;2023-02-22T05:41:27;3.50;99.90
13472;DHT22;6808;49.444;11.034;2023-02-22T05:43:53;3.30;99.90
13472;DHT22;6808;49.444;11.034;2023-02-22T05:46:19;3.30;99.90
13472;DHT22;6808;49.444;11.034;2023-02-22T05:48:44;3.20;99.90
13472;DHT22;6808;49.444;11.034;2023-02-22T05:51:10;3.30;99.90
13472;DHT22;6808;49.444;11.034;2023-02-22T05:53:36;3.30;99.90
13472;DHT22;6808;49.444;11.034;2023-02-22T05:56:02;3.20;99.90
13472;DHT22;6808;49.444;11.034;2023-02-22T05:58:27;3.20;99.90
13472;DHT22;6808;49.444;11.034;2023-02-22T06:00:53;3.10;99.90
13472;DHT22;6808;49.444;11.034;2023-02-22T06:03:19;3.10;99.90
13472;DHT22;6808;49.444;11.034;2023-02-22T06:05:45;3.10;99.90
13472;DHT22;6808;49.444;11.034;2023-02-22T06:08:11;3.10;99.90
13472;DHT22;6808;49.444;11.034;2023-02-22T06:10:37;3.10;99.90
13472;DHT22;6808;49.444;11.034;2023-02-22T06:13:04;3.10;99.90
13472;DHT22;6808;49.444;11.034;2023-02-22T06:15:30;3.10;99.90
13472;DHT22;6808;49.444;11.034;2023-02-22T06:17:56;3.10;99.90
13472;DHT22;6808;49.444;11.034;2023-02-22T06:20:24;3.10;99.90
13472;DHT22;6808;49.444;11.034;2023-02-22T06:22:51;3.00;99.90
13472;DHT22;6808;49.444;11.034;2023-02-22T06:25:20;3.00;99.90
13472;DHT22;6808;49.444;11.034;2023-02-22T06:27:46;3.00;99.90
13472;DHT22;6808;49.444;11.034;2023-02-22T06:30:12;3.00;99.90
13472;DHT22;6808;49.444;11.034;2023-02-22T06:32:38;3.00;99.90
13472;DHT22;6808;49.444;11.034;2023-02-22T06:35:04;3.00;99.90
13472;DHT22;6808;49.444;11.034;2023-02-22T06:37:30;2.90;99.90
13472;DHT22;6808;49.444;11.034;2023-02-22T06:39:55;2.90;99.90
13472;DHT22;6808;49.444;11.034;2023-02-22T06:42:21;2.90;99.90
13472;DHT22;6808;49.444;11.034;2023-02-22T06:44:47;3.10;99.90
13472;DHT22;6808;49.444;11.034;2023-02-22T06:47:12;2.90;99.90
13472;DHT22;6808;49.444;11.034;2023-02-22T06:49:38;2.90;99.90
13472;DHT22;6808;49.444;11.034;2023-02-22T06:52:05;2.90;99.90
13472;DHT22;6808;49.444;11.034;2023-02-22T06:54:31;2.90;99.90
13472;DHT22;6808;49.444;11.034;2023-02-22T06:56:56;3.00;99.90
13472;DHT22;6808;49.444;11.034;2023-02-22T06:59:22;3.00;99.90
13472;DHT22;6808;49.444;11.034;2023-02-22T07:01:49;3.00;99.90
13472;DHT22;6808;49.444;11.034;2023-02-22T07:04:15;3.10;99.90
13472;DHT22;6808;49.444;11.034;2023-02-22T07:06:48;3.10;99.90
13472;DHT22;6808;49.444;11.034;2023-02-22T07:09:16;3.10;99.90
13472;DHT22;6808;49.444;11.034;2023-02-22T07:11:43;3.10;99.90
13472;DHT22;6808;49.444;11.034;2023-02-22T07:14:09;3.10;99.90
13472;DHT22;6808;49.444;11.034;2023-02-22T07:16:34;4.20;99.90
13472;DHT22;6808;49.444;11.034;2023-02-22T07:19:00;3.60;99.90
13472;DHT22;6808;49.444;11.034;2023-02-22T07:21:33;3.30;99.90
13472;DHT22;6808;49.444;11.034;2023-02-22T07:23:58;3.30;99.90
13472;DHT22;6808;49.444;11.034;2023-02-22T07:26:25;3.40;99.90
13472;DHT22;6808;49.444;11.034;2023-02-22T07:28:50;3.40;99.90
13472;DHT22;6808;49.444;11.034;2023-02-22T07:31:16;3.40;99.90
13472;DHT22;6808;49.444;11.034;2023-02-22T07:33:42;3.50;99.90
13472;DHT22;6808;49.444;11.034;2023-02-22T07:36:10;3.60;99.90
13472;DHT22;6808;49.444;11.034;2023-02-22T07:38:47;3.60;99.90
13472;DHT22;6808;49.444;11.034;2023-02-22T07:41:12;3.70;99.90
13472;DHT22;6808;49.444;11.034;2023-02-22T07:43:38;3.70;99.90
13472;DHT22;6808;49.444;11.034;2023-02-22T07:46:04;3.80;99.90
13472;DHT22;6808;49.444;11.034;2023-02-22T07:48:31;3.90;99.90
13472;DHT22;6808;49.444;11.034;2023-02-22T07:50:58;4.00;99.90
13472;DHT22;6808;49.444;11.034;2023-02-22T07:53:26;4.10;99.90
13472;DHT22;6808;49.444;11.034;2023-02-22T07:55:58;4.20;99.90
13472;DHT22;6808;49.444;11.034;2023-02-22T07:58:26;4.20;99.90
13472;DHT22;6808;49.444;11.034;2023-02-22T08:00:52;4.30;99.90
13472;DHT22;6808;49.444;11.034;2023-02-22T08:03:19;4.40;99.90
13472;DHT22;6808;49.444;11.034;2023-02-22T08:05:50;4.40;99.90
13472;DHT22;6808;49.444;11.034;2023-02-22T08:08:18;4.50;99.90
13472;DHT22;6808;49.444;11.034;2023-02-22T08:10:44;4.50;99.90
13472;DHT22;6808;49.444;11.034;2023-02-22T08:13:10;4.60;99.90
13472;DHT22;6808;49.444;11.034;2023-02-22T08:15:38;4.70;99.90
13472;DHT22;6808;49.444;11.034;2023-02-22T08:18:09;4.80;99.90
13472;DHT22;6808;49.444;11.034;2023-02-22T08:20:38;4.90;99.90
13472;DHT22;6808;49.444;11.034;2023-02-22T08:23:05;5.00;99.90
13472;DHT22;6808;49.444;11.034;2023-02-22T08:25:33;5.00;99.90
13472;DHT22;6808;49.444;11.034;2023-02-22T08:28:03;5.00;99.90
13472;DHT22;6808;49.444;11.034;2023-02-22T08:30:31;5.10;99.90
13472;DHT22;6808;49.444;11.034;2023-02-22T08:32:57;5.20;99.90
13472;DHT22;6808;49.444;11.034;2023-02-22T08:35:24;5.30;99.90
13472;DHT22;6808;49.444;11.034;2023-02-22T08:37:56;5.30;99.90
13472;DHT22;6808;49.444;11.034;2023-02-22T08:40:24;5.40;99.90
13472;DHT22;6808;49.444;11.034;2023-02-22T08:42:52;5.40;99.90
13472;DHT22;6808;49.444;11.034;2023-02-22T08:45:19;5.50;99.90
13472;DHT22;6808;49.444;11.034;2023-02-22T08:47:45;5.60;99.90
13472;DHT22;6808;49.444;11.034;2023-02-22T08:50:30;5.60;99.90
13472;DHT22;6808;49.444;11.034;2023-02-22T08:52:58;5.80;99.90
13472;DHT22;6808;49.444;11.034;2023-02-22T08:55:30;5.80;99.90
13472;DHT22;6808;49.444;11.034;2023-02-22T08:57:59;6.00;99.90
13472;DHT22;6808;49.444;11.034;2023-02-22T09:00:25;6.10;99.90
13472;DHT22;6808;49.444;11.034;2023-02-22T09:02:54;6.20;99.90
13472;DHT22;6808;49.444;11.034;2023-02-22T09:05:20;6.30;99.90
13472;DHT22;6808;49.444;11.034;2023-02-22T09:07:46;6.60;99.90
13472;DHT22;6808;49.444;11.034;2023-02-22T09:10:22;6.80;99.90
13472;DHT22;6808;49.444;11.034;2023-02-22T09:12:51;6.90;99.90
13472;DHT22;6808;49.444;11.034;2023-02-22T09:15:18;7.00;99.90
13472;DHT22;6808;49.444;11.034;2023-02-22T09:17:44;7.20;99.90
13472;DHT22;6808;49.444;11.034;2023-02-22T09:20:10;7.30;99.90
13472;DHT22;6808;49.444;11.034;2023-02-22T09:22:37;7.30;99.90
13472;DHT22;6808;49.444;11.034;2023-02-22T09:25:03;7.40;99.90
13472;DHT22;6808;49.444;11.034;2023-02-22T09:27:29;7.40;99.90
13472;DHT22;6808;49.444;11.034;2023-02-22T09:29:55;7.50;99.90
13472;DHT22;6808;49.444;11.034;2023-02-22T09:32:22;7.50;99.90
13472;DHT22;6808;49.444;11.034;2023-02-22T09:34:48;7.60;99.90
13472;DHT22;6808;49.444;11.034;2023-02-22T09:37:13;7.80;99.90
13472;DHT22;6808;49.444;11.034;2023-02-22T09:39:39;7.80;99.90
13472;DHT22;6808;49.444;11.034;2023-02-22T09:47:49;8.10;99.90
13472;DHT22;6808;49.444;11.034;2023-02-22T09:50:21;8.20;99.90
13472;DHT22;6808;49.444;11.034;2023-02-22T09:55:51;8.20;99.90
13472;DHT22;6808;49.444;11.034;2023-02-22T09:58:24;8.20;99.90
13472;DHT22;6808;49.444;11.034;2023-02-22T10:00:59;8.30;99.90
13472;DHT22;6808;49.444;11.034;2023-02-22T10:04:03;8.30;99.90
13472;DHT22;6808;49.444;11.034;2023-02-22T10:06:30;8.40;99.90
13472;DHT22;6808;49.444;11.034;2023-02-22T10:09:00;8.50;99.90
13472;DHT22;6808;49.444;11.034;2023-02-22T10:11:42;8.60;99.90
13472;DHT22;6808;49.444;11.034;2023-02-22T10:17:29;8.80;99.90
13472;DHT22;6808;49.444;11.034;2023-02-22T10:20:19;8.90;99.90
13472;DHT22;6808;49.444;11.034;2023-02-22T10:23:04;9.10;99.90
13472;DHT22;6808;49.444;11.034;2023-02-22T10:25:35;9.30;99.90
13472;DHT22;6808;49.444;11.034;2023-02-22T10:28:03;9.90;99.90
13472;DHT22;6808;49.444;11.034;2023-02-22T10:30:40;9.50;99.90
13472;DHT22;6808;49.444;11.034;2023-02-22T10:33:16;9.50;99.90
13472;DHT22;6808;49.444;11.034;2023-02-22T10:35:44;9.50;99.90
13472;DHT22;6808;49.444;11.034;2023-02-22T10:38:25;9.70;99.90
13472;DHT22;6808;49.444;11.034;2023-02-22T10:41:02;9.80;99.90
13472;DHT22;6808;49.444;11.034;2023-02-22T10:43:40;9.90;99.90
13472;DHT22;6808;49.444;11.034;2023-02-22T10:46:15;10.00;99.90
13472;DHT22;6808;49.444;11.034;2023-02-22T10:48:44;10.10;99.90
13472;DHT22;6808;49.444;11.034;2023-02-22T10:51:11;10.30;99.90
13472;DHT22;6808;49.444;11.034;2023-02-22T10:53:38;10.40;99.90
13472;DHT22;6808;49.444;11.034;2023-02-22T10:56:19;10.60;99.90
13472;DHT22;6808;49.444;11.034;2023-02-22T11:01:25;10.80;99.90
13472;DHT22;6808;49.444;11.034;2023-02-22T11:03:57;11.00;99.90
13472;DHT22;6808;49.444;11.034;2023-02-22T11:06:25;11.20;99.90
13472;DHT22;6808;49.444;11.034;2023-02-22T11:08:50;11.50;99.90
13472;DHT22;6808;49.444;11.034;2023-02-22T11:11:22;11.50;99.90
13472;DHT22;6808;49.444;11.034;2023-02-22T11:13:56;11.40;99.90
13472;DHT22;6808;49.444;11.034;2023-02-22T11:16:34;11.40;99.90
13472;DHT22;6808;49.444;11.034;2023-02-22T11:21:30;11.50;99.90
13472;DHT22;6808;49.444;11.034;2023-02-22T11:24:02;11.60;99.90
13472;DHT22;6808;49.444;11.034;2023-02-22T11:26:28;11.90;99.90
13472;DHT22;6808;49.444;11.034;2023-02-22T11:29:14;12.70;99.90
13472;DHT22;6808;49.444;11.034;2023-02-22T11:31:43;12.00;99.90
13472;DHT22;6808;49.444;11.034;2023-02-22T11:34:25;12.10;99.90
13472;DHT22;6808;49.444;11.034;2023-02-22T11:36:51;12.30;99.90
13472;DHT22;6808;49.444;11.034;2023-02-22T11:39:30;12.20;99.90
13472;DHT22;6808;49.444;11.034;2023-02-22T11:42:19;12.20;99.90
13472;DHT22;6808;49.444;11.034;2023-02-22T11:44:47;12.30;99.90
13472;DHT22;6808;49.444;11.034;2023-02-22T11:47:13;12.50;99.90
13472;DHT22;6808;49.444;11.034;2023-02-22T11:49:42;12.60;99.90
13472;DHT22;6808;49.444;11.034;2023-02-22T11:52:18;12.80;99.90
13472;DHT22;6808;49.444;11.034;2023-02-22T11:58:07;13.00;99.90
13472;DHT22;6808;49.444;11.034;2023-02-22T12:06:10;13.40;99.90
13472;DHT22;6808;49.444;11.034;2023-02-22T12:14:56;13.50;99.90
13472;DHT22;6808;49.444;11.034;2023-02-22T12:17:36;13.50;99.90
13472;DHT22;6808;49.444;11.034;2023-02-22T12:23:04;13.60;99.90
13472;DHT22;6808;49.444;11.034;2023-02-22T12:25:34;13.60;99.90
13472;DHT22;6808;49.444;11.034;2023-02-22T12:28:17;13.60;99.90
13472;DHT22;6808;49.444;11.034;2023-02-22T12:31:05;13.60;99.90
13472;DHT22;6808;49.444;11.034;2023-02-22T12:36:24;14.10;99.90
13472;DHT22;6808;49.444;11.034;2023-02-22T12:39:02;14.20;99.90
13472;DHT22;6808;49.444;11.034;2023-02-22T12:41:35;14.40;99.90
13472;DHT22;6808;49.444;11.034;2023-02-22T12:44:08;14.40;99.90
13472;DHT22;6808;49.444;11.034;2023-02-22T12:46:49;14.30;99.90
13472;DHT22;6808;49.444;11.034;2023-02-22T12:49:47;14.30;99.90
13472;DHT22;6808;49.444;11.034;2023-02-22T12:55:14;14.40;99.90
13472;DHT22;6808;49.444;11.034;2023-02-22T13:03:03;14.80;98.80
13472;DHT22;6808;49.444;11.034;2023-02-22T13:05:35;15.10;98.40
13472;DHT22;6808;49.444;11.034;2023-02-22T13:19:47;15.50;99.90
13472;DHT22;6808;49.444;11.034;2023-02-22T13:22:29;15.80;98.40
13472;DHT22;6808;49.444;11.034;2023-02-22T13:27:49;16.20;99.00
13472;DHT22;6808;49.444;11.034;2023-02-22T13:30:30;16.00;97.20
13472;DHT22;6808;49.444;11.034;2023-02-22T13:41:09;16.00;98.00
13472;DHT22;6808;49.444;11.034;2023-02-22T13:51:50;16.60;95.60
13472;DHT22;6808;49.444;11.034;2023-02-22T13:54:36;16.60;95.40
13472;DHT22;6808;49.444;11.034;2023-02-22T13:57:03;16.70;95.30
13472;DHT22;6808;49.444;11.034;2023-02-22T13:59:35;16.50;95.40
13472;DHT22;6808;49.444;11.034;2023-02-22T14:02:03;16.60;96.40
13472;DHT22;6808;49.444;11.034;2023-02-22T14:09:54;16.80;95.00
13472;DHT22;6808;49.444;11.034;2023-02-22T14:17:46;16.60;95.30
13472;DHT22;6808;49.444;11.034;2023-02-22T14:22:44;16.40;91.90
13472;DHT22;6808;49.444;11.034;2023-02-22T14:27:57;16.00;93.30
13472;DHT22;6808;49.444;11.034;2023-02-22T14:30:26;16.00;93.50
13472;DHT22;6808;49.444;11.034;2023-02-22T14:32:52;15.90;95.00
13472;DHT22;6808;49.444;11.034;2023-02-22T14:35:18;15.80;95.60
13472;DHT22;6808;49.444;11.034;2023-02-22T14:37:50;15.80;97.50
13472;DHT22;6808;49.444;11.034;2023-02-22T14:45:35;15.60;97.10
13472;DHT22;6808;49.444;11.034;2023-02-22T14:50:55;15.30;98.10
13472;DHT22;6808;49.444;11.034;2023-02-22T14:56:06;15.30;98.80
13472;DHT22;6808;49.444;11.034;2023-02-22T14:58:50;15.20;99.50
13472;DHT22;6808;49.444;11.034;2023-02-22T15:03:50;15.20;98.20
13472;DHT22;6808;49.444;11.034;2023-02-22T15:06:17;15.20;98.80
13472;DHT22;6808;49.444;11.034;2023-02-22T15:08:45;15.10;99.30
13472;DHT22;6808;49.444;11.034;2023-02-22T15:11:26;15.00;99.50
13472;DHT22;6808;49.444;11.034;2023-02-22T15:14:01;15.00;99.30
13472;DHT22;6808;49.444;11.034;2023-02-22T15:16:30;14.90;99.10
13472;DHT22;6808;49.444;11.034;2023-02-22T15:18:59;15.00;99.40
13472;DHT22;6808;49.444;11.034;2023-02-22T15:21:29;14.90;99.60
13472;DHT22;6808;49.444;11.034;2023-02-22T15:24:04;14.90;99.70
13472;DHT22;6808;49.444;11.034;2023-02-22T15:26:40;14.80;99.60
13472;DHT22;6808;49.444;11.034;2023-02-22T15:29:17;14.90;99.20
13472;DHT22;6808;49.444;11.034;2023-02-22T15:31:43;14.80;99.60
13472;DHT22;6808;49.444;11.034;2023-02-22T15:36:41;14.70;99.70
13472;DHT22;6808;49.444;11.034;2023-02-22T15:39:18;14.60;99.90
13472;DHT22;6808;49.444;11.034;2023-02-22T15:41:44;14.60;99.90
13472;DHT22;6808;49.444;11.034;2023-02-22T15:44:10;14.50;99.90
13472;DHT22;6808;49.444;11.034;2023-02-22T15:46:37;14.60;99.90
13472;DHT22;6808;49.444;11.034;2023-02-22T15:51:36;14.40;99.90
13472;DHT22;6808;49.444;11.034;2023-02-22T15:54:03;14.40;99.90
13472;DHT22;6808;49.444;11.034;2023-02-22T15:56:40;14.30;99.90
13472;DHT22;6808;49.444;11.034;2023-02-22T15:59:13;14.30;99.90
13472;DHT22;6808;49.444;11.034;2023-02-22T16:01:41;14.20;99.90
13472;DHT22;6808;49.444;11.034;2023-02-22T16:04:19;14.50;99.90
13472;DHT22;6808;49.444;11.034;2023-02-22T16:06:46;14.10;99.90
13472;DHT22;6808;49.444;11.034;2023-02-22T16:09:16;14.10;99.90
13472;DHT22;6808;49.444;11.034;2023-02-22T16:11:44;14.20;99.90
13472;DHT22;6808;49.444;11.034;2023-02-22T16:14:28;14.00;99.90
13472;DHT22;6808;49.444;11.034;2023-02-22T16:19:50;13.90;99.90
13472;DHT22;6808;49.444;11.034;2023-02-22T16:22:35;13.90;99.90
13472;DHT22;6808;49.444;11.034;2023-02-22T16:25:25;13.80;99.90
13472;DHT22;6808;49.444;11.034;2023-02-22T16:27:53;13.70;99.90
13472;DHT22;6808;49.444;11.034;2023-02-22T16:30:28;13.70;99.90
13472;DHT22;6808;49.444;11.034;2023-02-22T16:32:57;13.60;99.90
13472;DHT22;6808;49.444;11.034;2023-02-22T16:35:27;13.60;99.90
13472;DHT22;6808;49.444;11.034;2023-02-22T16:38:01;13.50;99.90
13472;DHT22;6808;49.444;11.034;2023-02-22T16:40:37;13.50;99.90
13472;DHT22;6808;49.444;11.034;2023-02-22T16:43:07;13.50;99.90
13472;DHT22;6808;49.444;11.034;2023-02-22T16:45:33;13.40;99.90
13472;DHT22;6808;49.444;11.034;2023-02-22T16:48:00;13.30;99.90
13472;DHT22;6808;49.444;11.034;2023-02-22T16:50:29;13.30;99.90
13472;DHT22;6808;49.444;11.034;2023-02-22T16:52:55;13.20;99.90
13472;DHT22;6808;49.444;11.034;2023-02-22T16:55:23;13.20;99.90
13472;DHT22;6808;49.444;11.034;2023-02-22T16:57:49;13.20;99.90
13472;DHT22;6808;49.444;11.034;2023-02-22T17:00:21;13.10;99.90
13472;DHT22;6808;49.444;11.034;2023-02-22T17:02:57;13.10;99.90
13472;DHT22;6808;49.444;11.034;2023-02-22T17:05:24;13.00;99.90
13472;DHT22;6808;49.444;11.034;2023-02-22T17:07:49;12.90;99.90
13472;DHT22;6808;49.444;11.034;2023-02-22T17:10:16;13.00;99.90
13472;DHT22;6808;49.444;11.034;2023-02-22T17:12:45;12.80;99.90
13472;DHT22;6808;49.444;11.034;2023-02-22T17:15:40;12.80;99.90
13472;DHT22;6808;49.444;11.034;2023-02-22T17:18:14;12.80;99.90
13472;DHT22;6808;49.444;11.034;2023-02-22T17:20:43;12.70;99.90
13472;DHT22;6808;49.444;11.034;2023-02-22T17:23:10;12.70;99.90
13472;DHT22;6808;49.444;11.034;2023-02-22T17:25:41;12.80;99.90
13472;DHT22;6808;49.444;11.034;2023-02-22T17:28:08;12.60;99.90
13472;DHT22;6808;49.444;11.034;2023-02-22T17:30:35;12.80;99.90
13472;DHT22;6808;49.444;11.034;2023-02-22T17:33:02;12.50;99.90
13472;DHT22;6808;49.444;11.034;2023-02-22T17:35:30;12.50;99.90
13472;DHT22;6808;49.444;11.034;2023-02-22T17:37:57;12.50;99.90
13472;DHT22;6808;49.444;11.034;2023-02-22T17:40:24;12.50;99.90
13472;DHT22;6808;49.444;11.034;2023-02-22T17:42:51;12.40;99.90
13472;DHT22;6808;49.444;11.034;2023-02-22T17:45:20;12.40;99.90
13472;DHT22;6808;49.444;11.034;2023-02-22T17:47:50;12.40;99.90
13472;DHT22;6808;49.444;11.034;2023-02-22T17:50:16;12.60;99.90
13472;DHT22;6808;49.444;11.034;2023-02-22T17:52:42;12.30;99.90
13472;DHT22;6808;49.444;11.034;2023-02-22T17:55:09;12.20;99.90
13472;DHT22;6808;49.444;11.034;2023-02-22T17:57:37;12.20;99.90
13472;DHT22;6808;49.444;11.034;2023-02-22T18:00:05;12.20;99.90
13472;DHT22;6808;49.444;11.034;2023-02-22T18:02:46;12.20;99.90
13472;DHT22;6808;49.444;11.034;2023-02-22T18:05:29;12.20;99.90
13472;DHT22;6808;49.444;11.034;2023-02-22T18:08:05;12.10;99.90
13472;DHT22;6808;49.444;11.034;2023-02-22T18:10:31;12.20;99.90
13472;DHT22;6808;49.444;11.034;2023-02-22T18:13:01;12.10;99.90